Time;durP1;ratioP1;P1;durP2;ratioP2;P2;SDS_P1;SDS_P2;PMS_P1;PMS_P2;Temp;Humidity;BMP_temperature;BMP_pressure;BME280_temperature;BME280_humidity;BME280_pressure;Samples;Min_cycle;Max_cycle;Signal;HPM_P1;HPM_P2
2021/01/09 00:00:51;;;;;;;;;;;1.20;99.90;;;;;;5128471;27;20360;-86
2021/01/09 00:03:20;;;;;;;;;;;1.20;99.90;;;;;;5131415;28;19911;-86
2021/01/09 00:05:58;;;;;;;;;;;1.10;99.90;;;;;;5135745;28;19911;-86
2021/01/09 00:08:26;;;;;;;;;;;1.00;99.90;;;;;;5132304;28;19937;-86
2021/01/09 00:10:58;;;;;;;;;;;0.90;99.90;;;;;;5134195;28;19914;-86
2021/01/09 00:13:29;;;;;;;;;;;0.90;99.90;;;;;;5035719;28;19908;-86
2021/01/09 00:15:55;;;;;;;;;;;0.80;99.90;;;;;;5051679;28;20272;-85
2021/01/09 00:18:23;;;;;;;;;;;0.80;99.90;;;;;;5049549;28;20007;-85
2021/01/09 00:20:52;;;;;;;;;;;0.80;99.90;;;;;;5051930;28;19912;-85
2021/01/09 00:23:24;;;;;;;;;;;0.80;99.90;;;;;;5051963;28;19909;-85
2021/01/09 00:25:58;;;;;;;;;;;0.80;99.90;;;;;;5049044;28;19932;-85
2021/01/09 00:28:36;;;;;;;;;;;0.80;99.90;;;;;;5049448;28;19909;-85
2021/01/09 00:31:12;;;;;;;;;;;0.80;99.90;;;;;;5051983;28;19920;-85
2021/01/09 00:33:47;;;;;;;;;;;0.80;99.90;;;;;;5051209;28;19931;-85
2021/01/09 00:36:24;;;;;;;;;;;0.80;99.90;;;;;;5030086;28;20018;-86
2021/01/09 00:39:01;;;;;;;;;;;0.70;99.90;;;;;;5032184;28;19916;-86
2021/01/09 00:41:37;;;;;;;;;;;0.70;99.90;;;;;;5031712;28;19916;-86
2021/01/09 00:44:09;;;;;;;;;;;0.60;99.90;;;;;;5055977;28;19915;-86
2021/01/09 00:46:44;;;;;;;;;;;0.50;99.90;;;;;;5073109;28;19950;-86
2021/01/09 00:49:15;;;;;;;;;;;0.50;99.90;;;;;;5073420;28;19950;-86
2021/01/09 00:51:52;;;;;;;;;;;0.50;99.90;;;;;;5076298;28;19958;-87
2021/01/09 00:54:28;;;;;;;;;;;0.50;99.90;;;;;;5094471;28;19912;-88
2021/01/09 00:56:57;;;;;;;;;;;0.40;99.90;;;;;;5078619;28;19961;-86
2021/01/09 00:59:40;;;;;;;;;;;0.40;99.90;;;;;;5076866;28;19908;-86
2021/01/09 01:02:18;;;;;;;;;;;0.30;99.90;;;;;;5141036;27;19907;-86
2021/01/09 01:04:47;;;;;;;;;;;0.30;99.90;;;;;;5159266;27;19907;-86
2021/01/09 01:07:18;;;;;;;;;;;0.30;99.90;;;;;;5140628;27;20011;-86
2021/01/09 01:09:58;;;;;;;;;;;0.30;99.90;;;;;;5140880;27;19968;-86
2021/01/09 01:12:27;;;;;;;;;;;0.30;99.90;;;;;;5140594;27;19952;-86
2021/01/09 01:14:55;;;;;;;;;;;0.30;99.90;;;;;;5140286;27;20368;-86
2021/01/09 01:17:24;;;;;;;;;;;0.30;99.90;;;;;;5141423;27;20390;-86
2021/01/09 01:20:19;;;;;;;;;;;0.20;99.90;;;;;;5158864;27;20256;-86
2021/01/09 01:22:51;;;;;;;;;;;0.20;99.90;;;;;;5140386;27;20001;-87
2021/01/09 01:25:17;;;;;;;;;;;0.30;99.90;;;;;;5135859;27;19919;-87
2021/01/09 01:27:54;;;;;;;;;;;0.30;99.90;;;;;;5158772;27;20064;-87
2021/01/09 01:30:46;;;;;;;;;;;0.30;99.90;;;;;;5094149;28;23452;-87
2021/01/09 01:33:15;;;;;;;;;;;0.30;99.90;;;;;;5092705;28;19927;-86
2021/01/09 01:35:55;;;;;;;;;;;0.20;99.90;;;;;;5080525;28;19927;-86
2021/01/09 01:38:26;;;;;;;;;;;0.20;99.90;;;;;;5095165;28;20432;-86
2021/01/09 01:41:06;;;;;;;;;;;0.20;99.90;;;;;;5091838;28;19923;-86
2021/01/09 01:43:36;;;;;;;;;;;0.10;99.90;;;;;;5077655;28;19908;-87
2021/01/09 01:46:13;;;;;;;;;;;0.10;99.90;;;;;;5077863;28;20010;-87
2021/01/09 01:48:39;;;;;;;;;;;0.10;99.90;;;;;;5115524;27;20353;-87
2021/01/09 01:51:12;;;;;;;;;;;0.10;99.90;;;;;;5114138;27;19954;-89
2021/01/09 01:53:44;;;;;;;;;;;0.10;99.90;;;;;;5119781;27;20273;-87
2021/01/09 01:56:17;;;;;;;;;;;0.10;99.90;;;;;;5114959;27;19919;-87
2021/01/09 01:58:49;;;;;;;;;;;0.10;99.90;;;;;;5103934;27;19911;-87
2021/01/09 02:01:21;;;;;;;;;;;0.10;99.90;;;;;;5119244;27;20344;-85
2021/01/09 02:03:48;;;;;;;;;;;0.00;99.90;;;;;;5117829;27;19960;-85
2021/01/09 02:06:27;;;;;;;;;;;0.00;99.90;;;;;;5137408;27;19915;-85
2021/01/09 02:09:09;;;;;;;;;;;0.00;99.90;;;;;;5118692;27;19931;-86
2021/01/09 02:11:45;;;;;;;;;;;0.00;99.90;;;;;;5119318;27;19908;-86
2021/01/09 02:14:20;;;;;;;;;;;-0.10;99.90;;;;;;5118941;27;20003;-87
2021/01/09 02:16:50;;;;;;;;;;;-0.10;99.90;;;;;;5137182;27;19911;-85
2021/01/09 02:19:21;;;;;;;;;;;-0.10;99.90;;;;;;5118990;27;19908;-86
2021/01/09 02:21:55;;;;;;;;;;;-0.10;99.90;;;;;;5112337;27;19914;-86
2021/01/09 02:24:27;;;;;;;;;;;-0.20;99.90;;;;;;5137380;27;19950;-86
2021/01/09 02:26:59;;;;;;;;;;;-0.10;99.90;;;;;;5119182;27;19908;-86
2021/01/09 02:29:37;;;;;;;;;;;-0.10;99.90;;;;;;5117517;27;19908;-86
2021/01/09 02:32:15;;;;;;;;;;;-0.20;99.90;;;;;;5118991;27;19908;-87
2021/01/09 02:34:58;;;;;;;;;;;-0.30;99.90;;;;;;5132733;27;19927;-86
2021/01/09 02:37:24;;;;;;;;;;;-0.30;99.90;;;;;;5135894;27;19915;-86
2021/01/09 02:40:03;;;;;;;;;;;-0.30;99.90;;;;;;5135649;27;19932;-86
2021/01/09 02:42:33;;;;;;;;;;;-0.40;99.90;;;;;;5133427;27;19912;-87
2021/01/09 02:45:07;;;;;;;;;;;-0.30;99.90;;;;;;5136718;27;19907;-87
2021/01/09 02:47:35;;;;;;;;;;;-0.30;99.90;;;;;;5130675;27;19908;-87
2021/01/09 02:50:00;;;;;;;;;;;-0.20;99.90;;;;;;5136237;27;19914;-86
2021/01/09 02:52:31;;;;;;;;;;;-0.10;99.90;;;;;;5135187;27;19911;-87
2021/01/09 02:55:06;;;;;;;;;;;-0.10;99.90;;;;;;5135313;27;19908;-87
2021/01/09 02:57:48;;;;;;;;;;;-0.20;99.90;;;;;;5132540;27;19922;-87
2021/01/09 03:00:22;;;;;;;;;;;-0.10;99.90;;;;;;5136763;27;19908;-86
2021/01/09 03:02:55;;;;;;;;;;;-0.10;99.90;;;;;;5136362;27;19908;-87
2021/01/09 03:05:31;;;;;;;;;;;-0.10;99.90;;;;;;5135199;27;19908;-87
2021/01/09 03:08:01;;;;;;;;;;;-0.10;99.90;;;;;;5135240;27;19908;-87
2021/01/09 03:10:37;;;;;;;;;;;-0.10;99.90;;;;;;5135134;27;19911;-87
2021/01/09 03:13:10;;;;;;;;;;;-0.10;99.90;;;;;;5134973;27;19907;-87
2021/01/09 03:15:42;;;;;;;;;;;-0.10;99.90;;;;;;5136282;27;19972;-87
2021/01/09 03:18:16;;;;;;;;;;;-0.20;99.90;;;;;;5138067;27;19965;-87
2021/01/09 03:20:47;;;;;;;;;;;-0.20;99.90;;;;;;5130799;27;19960;-87
2021/01/09 03:23:27;;;;;;;;;;;-0.30;99.90;;;;;;5134745;27;19907;-87
2021/01/09 03:25:58;;;;;;;;;;;-0.30;99.90;;;;;;5135867;27;20352;-86
2021/01/09 03:28:29;;;;;;;;;;;-0.40;99.90;;;;;;5129222;27;19907;-87
2021/01/09 03:30:55;;;;;;;;;;;-0.40;99.90;;;;;;5134518;27;19907;-87
2021/01/09 03:33:29;;;;;;;;;;;-0.40;99.90;;;;;;5130074;27;19919;-86
2021/01/09 03:36:04;;;;;;;;;;;-0.50;99.90;;;;;;5134830;27;19918;-87
2021/01/09 03:38:37;;;;;;;;;;;-0.60;99.90;;;;;;5134764;27;19930;-86
2021/01/09 03:41:12;;;;;;;;;;;-0.60;99.90;;;;;;5135417;27;19907;-87
2021/01/09 03:43:44;;;;;;;;;;;-0.70;99.90;;;;;;5134729;27;19986;-86
2021/01/09 03:46:18;;;;;;;;;;;-0.80;99.90;;;;;;5134805;27;19915;-86
2021/01/09 03:48:49;;;;;;;;;;;-0.80;99.90;;;;;;5130581;27;19915;-87
2021/01/09 03:51:20;;;;;;;;;;;-0.90;99.90;;;;;;5136377;27;19915;-86
2021/01/09 03:53:48;;;;;;;;;;;-0.90;99.90;;;;;;5134604;27;20379;-86
2021/01/09 03:56:23;;;;;;;;;;;-1.00;99.90;;;;;;5134171;27;19966;-87
2021/01/09 03:58:54;;;;;;;;;;;-1.10;99.90;;;;;;5131517;27;20013;-87
2021/01/09 04:01:29;;;;;;;;;;;-1.20;99.90;;;;;;5133724;27;19911;-86
2021/01/09 04:03:57;;;;;;;;;;;-1.20;99.90;;;;;;5133814;28;19908;-86
2021/01/09 04:06:23;;;;;;;;;;;-1.30;99.90;;;;;;5134237;28;19908;-86
2021/01/09 04:08:54;;;;;;;;;;;-1.30;99.90;;;;;;5133648;28;19907;-86
2021/01/09 04:11:26;;;;;;;;;;;-1.30;99.90;;;;;;5134374;28;20416;-87
2021/01/09 04:13:58;;;;;;;;;;;-1.30;99.90;;;;;;5135736;28;20285;-86
2021/01/09 04:16:32;;;;;;;;;;;-1.40;99.90;;;;;;5135590;28;19954;-86
2021/01/09 04:19:09;;;;;;;;;;;-1.50;99.90;;;;;;5134135;28;19907;-86
2021/01/09 04:21:54;;;;;;;;;;;-1.50;99.90;;;;;;5133789;28;19951;-87
2021/01/09 04:24:23;;;;;;;;;;;-1.50;99.90;;;;;;5133791;28;19919;-86
2021/01/09 04:27:02;;;;;;;;;;;-1.50;99.90;;;;;;5138896;27;19953;-86
2021/01/09 04:29:36;;;;;;;;;;;-1.50;99.90;;;;;;5131190;27;19908;-87
2021/01/09 04:32:05;;;;;;;;;;;-1.30;99.90;;;;;;5138834;27;19907;-86
2021/01/09 04:34:34;;;;;;;;;;;-1.30;99.90;;;;;;5134283;27;19919;-86
2021/01/09 04:37:05;;;;;;;;;;;-1.20;99.90;;;;;;5139412;27;19935;-86
2021/01/09 04:39:37;;;;;;;;;;;-1.20;99.90;;;;;;5138572;27;20279;-87
2021/01/09 04:42:06;;;;;;;;;;;-1.20;99.90;;;;;;5116683;28;20460;-87
2021/01/09 04:44:37;;;;;;;;;;;-1.30;99.90;;;;;;5099878;28;19954;-86
2021/01/09 04:47:07;;;;;;;;;;;-1.30;99.90;;;;;;5116445;28;20254;-87
2021/01/09 04:49:45;;;;;;;;;;;-1.30;99.90;;;;;;5099277;28;20265;-86
2021/01/09 04:52:26;;;;;;;;;;;-1.20;99.90;;;;;;5095651;28;19947;-87
2021/01/09 04:54:55;;;;;;;;;;;-1.20;99.90;;;;;;5099285;28;19908;-87
2021/01/09 04:57:25;;;;;;;;;;;-1.10;99.90;;;;;;5101101;28;19922;-87
2021/01/09 05:00:01;;;;;;;;;;;-1.10;99.90;;;;;;5119643;28;20368;-87
2021/01/09 05:02:27;;;;;;;;;;;-1.00;99.90;;;;;;5099513;28;19943;-86
2021/01/09 05:05:01;;;;;;;;;;;-1.00;99.90;;;;;;5099378;28;19931;-87
2021/01/09 05:07:29;;;;;;;;;;;-1.10;99.90;;;;;;5099163;28;19918;-86
2021/01/09 05:10:07;;;;;;;;;;;-1.10;99.90;;;;;;5099309;28;20002;-87
2021/01/09 05:12:38;;;;;;;;;;;-1.20;99.90;;;;;;5108683;27;19914;-86
2021/01/09 05:15:10;;;;;;;;;;;-1.20;99.90;;;;;;5138975;27;19908;-86
2021/01/09 05:17:41;;;;;;;;;;;-1.20;99.90;;;;;;5137149;27;19949;-86
2021/01/09 05:20:13;;;;;;;;;;;-1.20;99.90;;;;;;5138879;27;19911;-86
2021/01/09 05:22:49;;;;;;;;;;;-1.20;99.90;;;;;;5137082;27;20352;-86
2021/01/09 05:25:28;;;;;;;;;;;-1.20;99.90;;;;;;5137564;27;19908;-87
2021/01/09 05:28:00;;;;;;;;;;;-1.20;99.90;;;;;;5136783;27;20420;-86
2021/01/09 05:30:43;;;;;;;;;;;-1.20;99.90;;;;;;5132415;27;19911;-86
2021/01/09 05:33:15;;;;;;;;;;;-1.20;99.90;;;;;;5136523;27;19931;-86
2021/01/09 05:35:52;;;;;;;;;;;-1.30;99.90;;;;;;5131866;27;19963;-87
2021/01/09 05:38:38;;;;;;;;;;;-1.40;99.90;;;;;;5132973;27;19963;-87
2021/01/09 05:41:26;;;;;;;;;;;-1.40;99.90;;;;;;5138391;27;19907;-88
2021/01/09 05:44:03;;;;;;;;;;;-1.40;99.90;;;;;;5138375;27;20363;-87
2021/01/09 05:46:35;;;;;;;;;;;-1.30;99.90;;;;;;5136947;27;19908;-87
2021/01/09 05:49:05;;;;;;;;;;;-1.40;99.90;;;;;;5137551;27;19908;-86
2021/01/09 05:51:49;;;;;;;;;;;-1.40;99.90;;;;;;5138032;27;19937;-87
2021/01/09 05:54:29;;;;;;;;;;;-1.40;99.90;;;;;;5136964;27;19912;-87
2021/01/09 05:57:01;;;;;;;;;;;-1.40;99.90;;;;;;5135635;27;19924;-87
2021/01/09 05:59:33;;;;;;;;;;;-1.40;99.90;;;;;;5138161;27;20310;-87
2021/01/09 06:02:14;;;;;;;;;;;-1.40;99.90;;;;;;5136479;27;20007;-87
2021/01/09 06:07:45;;;;;;;;;;;-1.40;99.90;;;;;;5138152;27;19929;-87
2021/01/09 06:10:20;;;;;;;;;;;-1.40;99.90;;;;;;5131529;27;20367;-87
2021/01/09 06:13:01;;;;;;;;;;;-1.30;99.90;;;;;;5136084;27;19918;-86
2021/01/09 06:15:33;;;;;;;;;;;-1.30;99.90;;;;;;5135864;27;19908;-86
2021/01/09 06:18:02;;;;;;;;;;;-1.30;99.90;;;;;;5131174;27;19934;-87
2021/01/09 06:20:32;;;;;;;;;;;-1.30;99.90;;;;;;5136288;27;19937;-86
2021/01/09 06:23:01;;;;;;;;;;;-1.30;99.90;;;;;;5136331;27;19953;-86
2021/01/09 06:25:36;;;;;;;;;;;-1.40;99.90;;;;;;5136396;27;19918;-87
2021/01/09 06:28:18;;;;;;;;;;;-1.40;99.90;;;;;;5130757;27;19907;-87
2021/01/09 06:30:51;;;;;;;;;;;-1.40;99.90;;;;;;5136418;27;19907;-87
2021/01/09 06:33:30;;;;;;;;;;;-1.40;99.90;;;;;;5135185;27;19923;-86
2021/01/09 06:35:58;;;;;;;;;;;-1.30;99.90;;;;;;5136093;27;19915;-86
2021/01/09 06:38:32;;;;;;;;;;;-1.20;99.90;;;;;;5137353;27;19967;-86
2021/01/09 06:40:58;;;;;;;;;;;-1.00;99.90;;;;;;5138246;27;19915;-86
2021/01/09 06:43:40;;;;;;;;;;;-0.90;99.90;;;;;;5136249;27;19907;-86
2021/01/09 06:46:17;;;;;;;;;;;-0.70;99.90;;;;;;5136105;27;19919;-86
2021/01/09 06:48:49;;;;;;;;;;;-0.60;99.90;;;;;;5136195;27;19914;-85
2021/01/09 06:51:33;;;;;;;;;;;-0.50;99.90;;;;;;5135496;27;19907;-86
2021/01/09 06:54:14;;;;;;;;;;;-0.50;99.90;;;;;;5135210;27;19907;-86
2021/01/09 06:56:48;;;;;;;;;;;-0.50;99.90;;;;;;5135119;27;19923;-86
2021/01/09 06:59:37;;;;;;;;;;;-0.50;99.90;;;;;;5135318;27;19915;-86
2021/01/09 07:02:20;;;;;;;;;;;-0.60;99.90;;;;;;5135351;27;20387;-86
2021/01/09 07:05:00;;;;;;;;;;;-0.70;99.90;;;;;;5135115;27;19918;-86
2021/01/09 07:07:38;;;;;;;;;;;-0.70;99.90;;;;;;5134757;27;19959;-86
2021/01/09 07:10:28;;;;;;;;;;;;;;;;;;;;;
2021/01/09 07:13:07;;;;;;;;;;;-0.70;99.90;;;;;;5135996;27;19907;-86
2021/01/09 07:15:52;;;;;;;;;;;-0.70;99.90;;;;;;5132186;27;19961;-87
2021/01/09 07:18:35;;;;;;;;;;;-0.70;99.90;;;;;;5134621;27;19998;-86
2021/01/09 07:21:11;;;;;;;;;;;-0.70;99.90;;;;;;5130855;27;19907;-86
2021/01/09 07:23:48;;;;;;;;;;;-0.70;99.90;;;;;;5134405;27;19908;-86
2021/01/09 07:26:20;;;;;;;;;;;-0.60;99.90;;;;;;5134865;27;19914;-86
2021/01/09 07:28:50;;;;;;;;;;;-0.60;99.90;;;;;;5136415;27;19911;-86
2021/01/09 07:31:31;;;;;;;;;;;-0.50;99.90;;;;;;5136576;27;20342;-86
2021/01/09 07:34:00;;;;;;;;;;;-0.40;99.90;;;;;;5134361;27;20011;-87
2021/01/09 07:36:39;;;;;;;;;;;;;;;;;;;;;
2021/01/09 07:39:13;;;;;;;;;;;-0.20;99.90;;;;;;5136682;27;19908;-86
2021/01/09 07:41:42;;;;;;;;;;;-0.10;99.90;;;;;;5134611;27;19913;-86
2021/01/09 07:44:16;;;;;;;;;;;0.00;99.90;;;;;;5129186;27;20351;-87
2021/01/09 07:46:51;;;;;;;;;;;0.10;99.90;;;;;;5133588;27;19933;-86
2021/01/09 07:49:37;;;;;;;;;;;0.20;99.90;;;;;;5135762;27;19911;-87
2021/01/09 07:52:20;;;;;;;;;;;0.20;99.90;;;;;;5134057;27;20006;-88
2021/01/09 07:54:55;;;;;;;;;;;0.30;99.90;;;;;;5133592;27;19918;-87
2021/01/09 07:57:32;;;;;;;;;;;0.30;99.90;;;;;;5115540;28;19922;-87
2021/01/09 08:00:01;;;;;;;;;;;0.20;99.90;;;;;;5113150;28;19908;-88
2021/01/09 08:02:45;;;;;;;;;;;0.20;99.90;;;;;;5113893;28;19908;-86
2021/01/09 08:05:20;;;;;;;;;;;0.20;99.90;;;;;;5114170;28;20241;-87
2021/01/09 08:07:54;;;;;;;;;;;0.20;99.90;;;;;;5108718;28;19912;-86
2021/01/09 08:10:31;;;;;;;;;;;0.20;99.90;;;;;;5113868;28;19908;-86
2021/01/09 08:13:02;;;;;;;;;;;0.30;99.90;;;;;;5113447;28;19998;-87
2021/01/09 08:15:31;;;;;;;;;;;0.30;99.90;;;;;;5113558;28;19964;-86
2021/01/09 08:18:21;;;;;;;;;;;0.40;99.90;;;;;;5128248;28;19956;-87
2021/01/09 08:20:49;;;;;;;;;;;0.40;99.90;;;;;;5135136;28;20006;-87
2021/01/09 08:23:26;;;;;;;;;;;0.50;99.90;;;;;;5150446;28;19967;-87
2021/01/09 08:25:57;;;;;;;;;;;0.50;99.90;;;;;;5135467;28;19911;-87
2021/01/09 08:28:28;;;;;;;;;;;0.60;99.90;;;;;;5132037;28;19908;-87
2021/01/09 08:30:59;;;;;;;;;;;0.60;99.90;;;;;;5126405;28;19985;-87
2021/01/09 08:33:31;;;;;;;;;;;0.70;99.90;;;;;;5129116;27;19920;-87
2021/01/09 08:36:02;;;;;;;;;;;0.70;99.90;;;;;;5122390;28;19930;-87
2021/01/09 08:38:36;;;;;;;;;;;0.80;99.90;;;;;;5117927;28;19934;-87
2021/01/09 08:41:07;;;;;;;;;;;0.80;99.90;;;;;;5116553;28;19912;-87
2021/01/09 08:43:39;;;;;;;;;;;0.80;99.90;;;;;;5115699;28;19922;-87
2021/01/09 08:46:20;;;;;;;;;;;0.80;99.90;;;;;;5123195;28;19920;-87
2021/01/09 08:48:48;;;;;;;;;;;0.80;99.90;;;;;;5124629;28;19933;-88
2021/01/09 08:51:23;;;;;;;;;;;0.90;99.90;;;;;;5120513;28;19907;-87
2021/01/09 08:54:12;;;;;;;;;;;1.00;99.90;;;;;;5124326;28;19908;-86
2021/01/09 08:56:44;;;;;;;;;;;1.20;99.90;;;;;;5112794;28;20292;-86
2021/01/09 08:59:27;;;;;;;;;;;1.50;99.90;;;;;;5107594;28;19908;-87
2021/01/09 09:02:08;;;;;;;;;;;1.70;99.90;;;;;;5112934;28;19953;-86
2021/01/09 09:04:47;;;;;;;;;;;1.90;99.90;;;;;;5112955;28;19998;-87
2021/01/09 09:07:18;;;;;;;;;;;2.10;99.90;;;;;;5112590;28;19908;-87
2021/01/09 09:09:47;;;;;;;;;;;2.40;99.90;;;;;;5112869;28;20002;-86
2021/01/09 09:12:26;;;;;;;;;;;2.60;99.90;;;;;;5123465;27;20364;-87
2021/01/09 09:14:56;;;;;;;;;;;2.70;99.90;;;;;;5132219;27;19908;-87
2021/01/09 09:17:25;;;;;;;;;;;2.80;99.90;;;;;;5137095;27;20395;-86
2021/01/09 09:19:57;;;;;;;;;;;2.80;99.90;;;;;;5133320;27;19998;-86
2021/01/09 09:22:32;;;;;;;;;;;2.70;99.90;;;;;;5138242;27;19908;-87
2021/01/09 09:25:03;;;;;;;;;;;2.70;99.90;;;;;;5136936;27;19989;-85
2021/01/09 09:27:33;;;;;;;;;;;2.60;99.90;;;;;;5136647;27;19915;-86
2021/01/09 09:30:22;;;;;;;;;;;2.50;99.90;;;;;;5137057;27;19915;-86
2021/01/09 09:32:48;;;;;;;;;;;2.50;99.90;;;;;;5136758;27;19915;-85
2021/01/09 09:35:53;;;;;;;;;;;2.50;99.90;;;;;;5153138;27;20363;-86
2021/01/09 09:38:39;;;;;;;;;;;2.60;99.90;;;;;;5140275;27;19926;-85
2021/01/09 09:41:10;;;;;;;;;;;2.70;99.90;;;;;;5140793;27;19907;-85
2021/01/09 09:43:44;;;;;;;;;;;2.70;99.90;;;;;;5057792;28;20416;-86
2021/01/09 09:46:18;;;;;;;;;;;2.70;99.90;;;;;;5031093;28;19962;-86
2021/01/09 09:48:47;;;;;;;;;;;2.60;99.90;;;;;;5034104;28;19913;-86
2021/01/09 09:51:41;;;;;;;;;;;2.50;99.90;;;;;;5013661;28;19910;-87
2021/01/09 09:54:29;;;;;;;;;;;2.40;99.90;;;;;;5034687;28;19958;-86
2021/01/09 09:57:02;;;;;;;;;;;2.30;99.90;;;;;;5017980;28;19920;-86
2021/01/09 09:59:36;;;;;;;;;;;2.20;99.90;;;;;;5018194;28;19909;-86
2021/01/09 10:02:03;;;;;;;;;;;2.30;99.90;;;;;;5014935;28;20376;-86
2021/01/09 10:04:32;;;;;;;;;;;2.40;99.90;;;;;;5015153;28;20420;-86
2021/01/09 10:07:03;;;;;;;;;;;2.50;99.90;;;;;;5034806;28;19909;-86
2021/01/09 10:09:38;;;;;;;;;;;2.80;99.90;;;;;;5033729;28;20011;-85
2021/01/09 10:12:11;;;;;;;;;;;3.00;99.90;;;;;;5016420;28;20000;-86
2021/01/09 10:14:47;;;;;;;;;;;3.20;99.90;;;;;;5046689;28;19913;-86
2021/01/09 10:17:38;;;;;;;;;;;3.40;99.90;;;;;;5127333;27;20294;-86
2021/01/09 10:20:07;;;;;;;;;;;3.60;99.90;;;;;;5139566;27;19907;-86
2021/01/09 10:22:42;;;;;;;;;;;4.10;99.90;;;;;;5150521;27;19930;-86
2021/01/09 10:25:16;;;;;;;;;;;4.30;99.90;;;;;;5131795;27;19907;-86
2021/01/09 10:27:55;;;;;;;;;;;4.30;99.90;;;;;;5157492;27;19911;-86
2021/01/09 10:30:33;;;;;;;;;;;4.30;99.90;;;;;;5138979;27;20263;-86
2021/01/09 10:33:02;;;;;;;;;;;4.30;99.90;;;;;;5138880;27;19907;-86
2021/01/09 10:35:33;;;;;;;;;;;4.20;99.90;;;;;;5156999;27;19919;-86
2021/01/09 10:38:05;;;;;;;;;;;4.10;99.90;;;;;;5138410;27;19911;-87
2021/01/09 10:40:37;;;;;;;;;;;4.00;99.90;;;;;;5135691;27;19911;-86
2021/01/09 10:43:16;;;;;;;;;;;3.90;99.90;;;;;;5133648;27;20368;-86
2021/01/09 10:45:47;;;;;;;;;;;3.90;99.90;;;;;;5157104;27;19911;-86
2021/01/09 10:48:15;;;;;;;;;;;3.90;99.90;;;;;;5135090;27;19911;-86
2021/01/09 10:50:45;;;;;;;;;;;3.80;99.90;;;;;;5138724;27;19911;-86
2021/01/09 10:53:24;;;;;;;;;;;3.80;99.90;;;;;;5156646;27;19942;-86
2021/01/09 10:56:04;;;;;;;;;;;3.80;99.90;;;;;;5138571;27;19914;-86
2021/01/09 10:58:38;;;;;;;;;;;4.00;99.90;;;;;;5138560;27;19911;-86
2021/01/09 11:01:12;;;;;;;;;;;4.20;99.90;;;;;;5136290;27;20371;-86
2021/01/09 11:03:49;;;;;;;;;;;4.50;99.90;;;;;;5138340;27;19999;-86
2021/01/09 11:06:27;;;;;;;;;;;4.60;99.90;;;;;;5157098;27;19951;-86
2021/01/09 11:08:55;;;;;;;;;;;4.60;99.90;;;;;;5156862;27;20335;-86
2021/01/09 11:11:30;;;;;;;;;;;4.60;99.90;;;;;;5131339;27;19914;-86
2021/01/09 11:14:06;;;;;;;;;;;4.50;99.90;;;;;;5132936;27;19911;-86
2021/01/09 11:16:47;;;;;;;;;;;4.60;99.90;;;;;;5156678;27;19915;-86
2021/01/09 11:19:18;;;;;;;;;;;5.50;99.90;;;;;;5138131;27;19907;-86
2021/01/09 11:21:49;;;;;;;;;;;6.90;99.90;;;;;;5138005;27;19915;-86
2021/01/09 11:24:23;;;;;;;;;;;7.60;99.90;;;;;;5138083;27;19907;-87
2021/01/09 11:26:51;;;;;;;;;;;7.80;99.90;;;;;;5137187;27;19914;-86
2021/01/09 11:29:22;;;;;;;;;;;7.80;99.90;;;;;;5150556;27;19911;-87
2021/01/09 11:32:00;;;;;;;;;;;8.30;99.90;;;;;;5157198;27;20025;-87
2021/01/09 11:34:32;;;;;;;;;;;9.30;99.90;;;;;;5137825;27;19970;-87
2021/01/09 11:37:01;;;;;;;;;;;10.40;99.90;;;;;;5155585;27;19961;-88
2021/01/09 11:39:32;;;;;;;;;;;11.50;99.90;;;;;;5134576;27;19915;-87
2021/01/09 11:42:11;;;;;;;;;;;12.50;93.70;;;;;;5153437;27;19911;-87
2021/01/09 11:44:42;;;;;;;;;;;13.30;91.60;;;;;;5138573;27;19921;-87
2021/01/09 11:47:17;;;;;;;;;;;13.60;80.60;;;;;;5142234;27;20244;-87
2021/01/09 11:49:50;;;;;;;;;;;13.50;77.20;;;;;;5138218;27;19917;-87
2021/01/09 11:52:21;;;;;;;;;;;13.10;74.50;;;;;;5137684;27;20258;-86
2021/01/09 11:54:52;;;;;;;;;;;12.60;74.80;;;;;;5133028;27;19911;-86
2021/01/09 11:57:26;;;;;;;;;;;12.40;74.00;;;;;;5132331;27;19919;-87
2021/01/09 11:59:52;;;;;;;;;;;12.60;73.50;;;;;;5151270;27;19907;-88
2021/01/09 12:02:27;;;;;;;;;;;13.10;73.60;;;;;;5134274;27;19911;-86
2021/01/09 12:04:57;;;;;;;;;;;13.40;71.10;;;;;;5137716;27;20370;-87
2021/01/09 12:07:28;;;;;;;;;;;13.60;68.80;;;;;;5129975;27;19954;-87
2021/01/09 12:10:00;;;;;;;;;;;13.80;68.90;;;;;;5137004;27;19921;-87
2021/01/09 12:12:30;;;;;;;;;;;13.90;67.50;;;;;;5151382;27;19914;-87
2021/01/09 12:15:00;;;;;;;;;;;14.00;67.30;;;;;;5136985;27;19911;-88
2021/01/09 12:17:32;;;;;;;;;;;14.20;68.10;;;;;;5137111;27;19951;-87
2021/01/09 12:20:04;;;;;;;;;;;14.40;64.80;;;;;;5134052;27;20373;-87
2021/01/09 12:22:40;;;;;;;;;;;14.50;64.30;;;;;;5136641;27;19961;-86
2021/01/09 12:25:12;;;;;;;;;;;14.30;62.50;;;;;;5155570;27;19919;-86
2021/01/09 12:27:44;;;;;;;;;;;14.30;62.80;;;;;;5133467;27;19911;-85
2021/01/09 12:30:38;;;;;;;;;;;14.40;62.20;;;;;;5153767;27;19956;-86
2021/01/09 12:33:07;;;;;;;;;;;14.30;62.40;;;;;;5131941;27;19906;-87
2021/01/09 12:35:41;;;;;;;;;;;14.40;62.70;;;;;;5133380;28;19920;-86
2021/01/09 12:38:12;;;;;;;;;;;14.10;62.50;;;;;;5133573;28;20004;-86
2021/01/09 12:40:50;;;;;;;;;;;13.60;64.60;;;;;;5130340;28;19919;-86
2021/01/09 12:43:21;;;;;;;;;;;13.60;63.50;;;;;;5128576;28;19908;-86
2021/01/09 12:45:53;;;;;;;;;;;14.00;64.90;;;;;;5133305;27;20386;-85
2021/01/09 12:48:21;;;;;;;;;;;14.50;61.80;;;;;;5139015;27;19908;-86
2021/01/09 12:50:52;;;;;;;;;;;14.40;62.30;;;;;;5116168;28;20006;-86
2021/01/09 12:53:24;;;;;;;;;;;14.50;62.70;;;;;;5058441;28;20317;-86
2021/01/09 12:55:53;;;;;;;;;;;14.70;61.20;;;;;;5072733;28;19970;-86
2021/01/09 12:58:21;;;;;;;;;;;14.90;60.10;;;;;;5057985;28;19920;-87
2021/01/09 13:00:47;;;;;;;;;;;14.60;59.10;;;;;;5058385;28;19912;-86
2021/01/09 13:03:26;;;;;;;;;;;14.40;60.30;;;;;;5058530;28;19915;-86
2021/01/09 13:05:58;;;;;;;;;;;13.80;60.80;;;;;;5075045;28;20288;-86
2021/01/09 13:08:42;;;;;;;;;;;12.90;62.50;;;;;;5058524;28;20042;-86
2021/01/09 13:11:21;;;;;;;;;;;12.10;64.70;;;;;;5074817;28;20396;-87
2021/01/09 13:14:04;;;;;;;;;;;11.30;66.60;;;;;;5075524;28;19956;-86
2021/01/09 13:16:56;;;;;;;;;;;10.60;69.00;;;;;;5075543;28;19959;-85
2021/01/09 13:19:43;;;;;;;;;;;9.90;70.80;;;;;;5073879;28;19916;-86
2021/01/09 13:22:31;;;;;;;;;;;9.80;73.10;;;;;;5088463;28;20271;-86
2021/01/09 13:25:09;;;;;;;;;;;10.60;72.10;;;;;;5128555;27;19963;-86
2021/01/09 13:27:58;;;;;;;;;;;11.40;70.80;;;;;;5144753;27;19907;-87
2021/01/09 13:30:35;;;;;;;;;;;12.20;68.30;;;;;;5146200;27;19961;-86
2021/01/09 13:33:06;;;;;;;;;;;12.70;67.50;;;;;;5134604;27;20006;-86
2021/01/09 13:35:41;;;;;;;;;;;13.00;65.80;;;;;;5149630;27;19923;-86
2021/01/09 13:38:10;;;;;;;;;;;12.90;63.30;;;;;;5137250;27;19923;-86
2021/01/09 13:40:35;;;;;;;;;;;13.00;65.00;;;;;;5140237;27;20002;-86
2021/01/09 13:43:10;;;;;;;;;;;13.20;64.00;;;;;;5135194;27;19998;-86
2021/01/09 13:45:48;;;;;;;;;;;13.20;63.20;;;;;;5140658;27;19907;-86
2021/01/09 13:48:31;;;;;;;;;;;12.70;63.70;;;;;;5137887;27;19911;-87
2021/01/09 13:51:00;;;;;;;;;;;11.80;64.50;;;;;;5139420;27;19935;-86
2021/01/09 13:53:36;;;;;;;;;;;11.00;67.40;;;;;;5139702;27;19911;-87
2021/01/09 13:56:07;;;;;;;;;;;10.20;69.70;;;;;;5135556;27;19911;-86
2021/01/09 13:58:40;;;;;;;;;;;9.50;72.00;;;;;;5138486;27;19958;-85
2021/01/09 14:01:15;;;;;;;;;;;8.80;74.20;;;;;;5157712;27;19911;-85
2021/01/09 14:03:48;;;;;;;;;;;8.20;76.00;;;;;;5139621;27;19957;-85
2021/01/09 14:06:17;;;;;;;;;;;7.70;77.70;;;;;;5158252;27;19932;-85
2021/01/09 14:08:45;;;;;;;;;;;7.40;79.50;;;;;;5140460;27;19911;-85
2021/01/09 14:11:24;;;;;;;;;;;7.10;81.50;;;;;;5139598;27;19911;-86
2021/01/09 14:13:58;;;;;;;;;;;6.80;83.30;;;;;;5139681;27;20371;-86
2021/01/09 14:16:37;;;;;;;;;;;6.50;85.10;;;;;;5155671;27;20005;-85
2021/01/09 14:19:09;;;;;;;;;;;6.20;86.50;;;;;;5140016;27;19911;-85
2021/01/09 14:21:41;;;;;;;;;;;6.00;87.60;;;;;;5152503;27;19907;-85
2021/01/09 14:24:10;;;;;;;;;;;5.90;89.10;;;;;;5135831;27;19907;-85
2021/01/09 14:26:41;;;;;;;;;;;5.80;90.20;;;;;;5135667;27;19907;-86
2021/01/09 14:29:19;;;;;;;;;;;5.70;90.90;;;;;;5139701;27;19907;-86
2021/01/09 14:31:45;;;;;;;;;;;5.60;91.60;;;;;;5133823;27;19956;-86
2021/01/09 14:34:18;;;;;;;;;;;5.60;92.60;;;;;;5133710;27;20309;-86
2021/01/09 14:36:46;;;;;;;;;;;5.70;93.10;;;;;;5133612;27;19934;-86
2021/01/09 14:39:18;;;;;;;;;;;5.70;93.80;;;;;;5133235;27;19911;-86
2021/01/09 14:41:47;;;;;;;;;;;5.60;94.80;;;;;;5136087;27;20363;-85
2021/01/09 14:44:16;;;;;;;;;;;5.50;95.80;;;;;;5139061;27;20313;-85
2021/01/09 14:46:56;;;;;;;;;;;5.40;96.40;;;;;;5133188;27;20391;-85
2021/01/09 14:49:28;;;;;;;;;;;5.20;97.40;;;;;;5139219;27;19914;-85
2021/01/09 14:52:04;;;;;;;;;;;5.10;98.00;;;;;;5136993;27;19976;-85
2021/01/09 14:54:30;;;;;;;;;;;5.10;98.70;;;;;;5139348;27;19990;-85
2021/01/09 14:57:00;;;;;;;;;;;5.00;99.90;;;;;;5110756;28;20011;-85
2021/01/09 14:59:30;;;;;;;;;;;5.00;99.90;;;;;;5092253;28;19912;-85
2021/01/09 15:02:01;;;;;;;;;;;5.10;99.90;;;;;;5094464;28;20360;-85
2021/01/09 15:04:40;;;;;;;;;;;5.10;99.90;;;;;;5091535;28;20002;-85
2021/01/09 15:07:16;;;;;;;;;;;5.00;99.90;;;;;;5097223;28;20011;-85
2021/01/09 15:09:48;;;;;;;;;;;5.00;99.90;;;;;;5101208;28;19908;-85